Aviation Digital Data Service (ADDS)

Output produced by TAFs form (2358 UTC 18 July 2018)
found at http://www.aviationweather.gov/adds/tafs/
 
METAR text: RJDC 182300Z 23005KT 170V260 8000 NSC 28/25 Q1011
Conditions at: RJDC (YAMAGUCHI/UBE AR, JP) observed 2300 UTC 18 July 2018
Temperature: 28.0°C (82°F)
Dewpoint: 25.0°C (77°F) [RH = 84%]
Pressure (altimeter): 29.85 inches Hg (1011.0 mb)
Winds: from the SW (230 degrees) at 6 MPH (5 knots; 2.6 m/s)
Visibility: 5 miles (8 km)
Ceiling: at least 12,000 feet AGL
Clouds: sky clear below 12,000 feet AGL
Weather: no significant weather observed at this time